createdAt,value
2018-06-20T00:02:03.124Z,5.33
2018-06-20T00:04:31.482Z,4.70
2018-06-20T00:06:59.804Z,4.53
2018-06-20T00:09:28.315Z,5.45
2018-06-20T00:11:56.688Z,5.10
2018-06-20T00:14:24.998Z,5.12
2018-06-20T00:16:53.367Z,5.03
2018-06-20T00:19:22.239Z,4.80
2018-06-20T00:21:50.675Z,4.73
2018-06-20T00:24:19.236Z,6.30
2018-06-20T00:26:47.497Z,5.60
2018-06-20T00:29:16.927Z,5.12
2018-06-20T00:31:45.245Z,4.70
2018-06-20T00:34:13.522Z,6.10
2018-06-20T00:36:42.458Z,5.58
2018-06-20T00:39:12.389Z,4.63
2018-06-20T00:41:40.721Z,5.77
2018-06-20T00:44:09.656Z,5.25
2018-06-20T00:46:38.049Z,5.73
2018-06-20T00:49:06.565Z,5.80
2018-06-20T00:51:36.018Z,6.67
2018-06-20T00:54:05.397Z,6.30
2018-06-20T00:56:34.159Z,6.03
2018-06-20T00:59:03.244Z,5.63
2018-06-20T01:01:31.588Z,6.45
2018-06-20T01:03:59.896Z,5.90
2018-06-20T01:06:28.257Z,6.90
2018-06-20T01:08:58.692Z,7.00
2018-06-20T01:11:29.570Z,6.50
2018-06-20T01:13:57.817Z,6.95
2018-06-20T01:16:26.091Z,4.73
2018-06-20T01:18:54.472Z,5.80
2018-06-20T01:21:23.509Z,4.63
2018-06-20T01:23:51.822Z,5.57
2018-06-20T01:26:20.209Z,5.30
2018-06-20T01:28:49.038Z,5.90
2018-06-20T01:31:17.910Z,5.50
2018-06-20T01:33:46.233Z,4.70
2018-06-20T01:36:15.331Z,6.20
2018-06-20T01:38:43.612Z,5.30
2018-06-20T01:41:13.147Z,5.40
2018-06-20T01:43:42.946Z,6.37
2018-06-20T01:46:11.295Z,6.03
2018-06-20T01:48:40.652Z,5.90
2018-06-20T01:51:09.575Z,6.67
2018-06-20T01:53:38.048Z,5.47
2018-06-20T01:56:07.005Z,5.10
2018-06-20T01:58:36.912Z,5.87
2018-06-20T02:01:05.392Z,5.65
2018-06-20T02:03:33.694Z,5.40
2018-06-20T02:06:02.642Z,5.50
2018-06-20T02:08:31.551Z,4.80
2018-06-20T02:10:59.851Z,5.78
2018-06-20T02:13:28.248Z,5.53
2018-06-20T02:15:57.891Z,5.33
2018-06-20T02:18:29.289Z,5.12
2018-06-20T02:20:57.664Z,5.03
2018-06-20T02:23:26.355Z,5.75
2018-06-20T02:25:54.974Z,7.50
2018-06-20T02:28:24.371Z,5.33
2018-06-20T02:30:54.161Z,5.23
2018-06-20T02:33:23.862Z,6.00
2018-06-20T02:35:52.627Z,5.80
2018-06-20T02:38:21.072Z,5.50
2018-06-20T02:40:51.064Z,6.30
2018-06-20T02:43:20.337Z,5.93
2018-06-20T02:45:49.205Z,6.20
2018-06-20T02:48:17.680Z,5.80
2018-06-20T02:50:46.040Z,5.90
2018-06-20T02:53:14.422Z,5.90
2018-06-20T02:55:43.520Z,6.55
2018-06-20T02:58:12.369Z,6.00
2018-06-20T03:00:40.656Z,6.00
2018-06-20T03:03:08.933Z,6.37
2018-06-20T03:05:38.190Z,6.80
2018-06-20T03:08:06.429Z,6.28
2018-06-20T03:10:34.980Z,6.33
2018-06-20T03:13:03.404Z,7.27
2018-06-20T03:15:31.954Z,6.63
2018-06-20T03:18:00.996Z,6.03
2018-06-20T03:20:29.366Z,7.07
2018-06-20T03:22:57.654Z,6.37
2018-06-20T03:25:27.060Z,6.17
2018-06-20T03:27:55.591Z,5.93
2018-06-20T03:30:24.480Z,6.05
2018-06-20T03:32:52.793Z,6.00
2018-06-20T03:35:21.702Z,5.97
2018-06-20T03:37:51.081Z,6.73
2018-06-20T03:40:19.866Z,6.00
2018-06-20T03:42:48.642Z,5.20
2018-06-20T03:45:17.409Z,5.45
2018-06-20T03:47:47.236Z,5.90
2018-06-20T03:50:15.748Z,5.20
2018-06-20T03:52:44.880Z,4.73
2018-06-20T03:55:14.841Z,6.17
2018-06-20T03:57:43.960Z,4.53
2018-06-20T04:00:12.650Z,4.37
2018-06-20T04:02:41.738Z,4.73
2018-06-20T04:05:10.042Z,5.17
2018-06-20T04:07:45.104Z,4.63
2018-06-20T04:10:14.355Z,5.07
2018-06-20T04:12:42.698Z,4.97
2018-06-20T04:15:11.040Z,5.90
2018-06-20T04:17:39.389Z,5.47
2018-06-20T04:20:08.082Z,5.03
2018-06-20T04:22:36.522Z,5.60
2018-06-20T04:25:05.029Z,3.87
2018-06-20T04:27:33.409Z,3.67
2018-06-20T04:30:01.728Z,3.20
2018-06-20T04:32:30.100Z,2.60
2018-06-20T04:34:58.442Z,3.37
2018-06-20T04:37:27.589Z,3.20
2018-06-20T04:39:55.748Z,2.40
2018-06-20T04:42:24.069Z,3.37
2018-06-20T04:44:52.227Z,3.10
2018-06-20T04:47:20.308Z,2.93
2018-06-20T04:49:48.378Z,2.40
2018-06-20T04:52:16.452Z,3.10
2018-06-20T04:54:44.524Z,2.97
2018-06-20T04:57:12.616Z,2.13
2018-06-20T04:59:40.901Z,2.60
2018-06-20T05:02:09.003Z,2.77
2018-06-20T05:04:37.341Z,2.33
2018-06-20T05:07:05.432Z,2.47
2018-06-20T05:09:33.498Z,2.57
2018-06-20T05:12:01.596Z,2.50
2018-06-20T05:14:29.671Z,2.50
2018-06-20T05:16:57.998Z,2.60
2018-06-20T05:19:26.085Z,3.83
2018-06-20T05:21:54.221Z,3.27
2018-06-20T05:24:22.323Z,3.10
2018-06-20T05:26:50.407Z,2.47
2018-06-20T05:29:18.481Z,2.90
2018-06-20T05:31:46.608Z,2.90
2018-06-20T05:34:14.693Z,2.93
2018-06-20T05:36:42.896Z,2.87
2018-06-20T05:39:11.865Z,3.00
2018-06-20T05:41:39.996Z,2.42
2018-06-20T05:44:08.612Z,2.43
2018-06-20T05:46:36.756Z,2.73
2018-06-20T05:49:05.177Z,3.33
2018-06-20T05:51:33.476Z,3.27
2018-06-20T05:54:01.540Z,2.97
2018-06-20T05:56:30.221Z,3.30
2018-06-20T05:58:58.297Z,2.93
2018-06-20T06:01:26.360Z,3.70
2018-06-20T06:03:54.664Z,3.83
2018-06-20T06:06:23.469Z,3.90
2018-06-20T06:08:51.648Z,3.57
2018-06-20T06:11:20.092Z,4.00
2018-06-20T06:13:48.244Z,3.80
2018-06-20T06:16:16.378Z,3.90
2018-06-20T06:18:44.482Z,3.63
2018-06-20T06:21:12.552Z,3.00
2018-06-20T06:23:40.668Z,3.70
2018-06-20T06:26:08.800Z,3.83
2018-06-20T06:28:36.952Z,3.80
2018-06-20T06:31:05.034Z,3.13
2018-06-20T06:33:33.116Z,3.53
2018-06-20T06:36:01.333Z,3.30
2018-06-20T06:38:30.267Z,4.10
2018-06-20T06:40:58.315Z,3.47
2018-06-20T06:43:26.692Z,2.92
2018-06-20T06:45:54.769Z,4.20
2018-06-20T06:48:22.832Z,3.90
2018-06-20T06:50:51.016Z,5.00
2018-06-20T06:53:19.204Z,3.67
2018-06-20T06:55:47.311Z,4.10
2018-06-20T06:58:15.383Z,4.10
2018-06-20T07:00:43.451Z,4.17
2018-06-20T07:03:11.524Z,4.97
2018-06-20T07:05:39.716Z,5.23
2018-06-20T07:08:08.066Z,5.70
2018-06-20T07:10:36.456Z,5.97
2018-06-20T07:13:04.717Z,5.70
2018-06-20T07:15:32.931Z,4.83
2018-06-20T07:18:01.721Z,5.30
2018-06-20T07:20:30.220Z,4.70
2018-06-20T07:22:58.503Z,5.85
2018-06-20T07:25:26.811Z,5.80
2018-06-20T07:27:55.033Z,6.10
2018-06-20T07:30:23.529Z,6.10
2018-06-20T07:32:52.537Z,4.70
2018-06-20T07:35:21.359Z,5.60
2018-06-20T07:37:50.168Z,5.60
2018-06-20T07:40:19.322Z,5.87
2018-06-20T07:42:47.610Z,5.40
2018-06-20T07:45:15.994Z,6.00
2018-06-20T07:47:44.295Z,5.58
2018-06-20T07:50:12.360Z,4.67
2018-06-20T07:52:40.515Z,5.23
2018-06-20T07:55:08.596Z,4.13
2018-06-20T07:57:36.691Z,3.90
2018-06-20T08:00:10.365Z,4.73
2018-06-20T08:02:55.171Z,5.07
2018-06-20T08:05:29.823Z,4.70
2018-06-20T08:08:03.322Z,5.00
2018-06-20T08:10:37.264Z,5.03
2018-06-20T08:13:10.594Z,4.50
2018-06-20T08:15:44.080Z,5.03
2018-06-20T08:18:17.572Z,4.73
2018-06-20T08:20:45.632Z,5.30
2018-06-20T08:23:13.716Z,4.63
2018-06-20T08:25:42.127Z,4.30
2018-06-20T08:28:10.157Z,4.00
2018-06-20T08:30:38.236Z,4.30
2018-06-20T08:33:06.344Z,3.90
2018-06-20T08:35:34.916Z,3.42
2018-06-20T08:38:03.128Z,2.83
2018-06-20T08:40:31.534Z,3.23
2018-06-20T08:42:59.607Z,4.13
2018-06-20T08:45:27.907Z,3.57
2018-06-20T08:47:56.003Z,3.17
2018-06-20T08:50:24.079Z,3.83
2018-06-20T08:52:52.896Z,3.67
2018-06-20T08:55:21.946Z,3.07
2018-06-20T08:57:50.012Z,3.40
2018-06-20T09:00:23.528Z,3.90
2018-06-20T09:02:51.996Z,2.87
2018-06-20T09:05:25.796Z,2.63
2018-06-20T09:07:59.121Z,3.47
2018-06-20T09:10:32.545Z,3.00
2018-06-20T09:13:06.073Z,2.73
2018-06-20T09:15:39.781Z,2.80
2018-06-20T09:18:13.351Z,3.35
2018-06-20T09:20:41.421Z,3.70
2018-06-20T09:23:09.508Z,3.57
2018-06-20T09:25:37.575Z,2.83
2018-06-20T09:28:06.367Z,2.52
2018-06-20T09:30:34.440Z,3.00
2018-06-20T09:33:02.527Z,2.87
2018-06-20T09:35:30.640Z,2.90
2018-06-20T09:37:58.732Z,3.10
2018-06-20T09:40:26.814Z,3.47
2018-06-20T09:42:55.048Z,3.90
2018-06-20T09:45:23.477Z,2.83
2018-06-20T09:47:51.644Z,3.30
2018-06-20T09:50:25.089Z,2.60
2018-06-20T09:52:53.363Z,2.60
2018-06-20T09:55:22.371Z,2.50
2018-06-20T09:57:50.639Z,2.30
2018-06-20T10:00:24.147Z,2.20
2018-06-20T10:02:57.582Z,3.03
2018-06-20T10:05:31.001Z,2.83
2018-06-20T10:08:04.460Z,2.60
2018-06-20T10:10:38.073Z,2.65
2018-06-20T10:13:12.193Z,2.13
2018-06-20T10:15:41.304Z,2.10
2018-06-20T10:18:09.407Z,2.97
2018-06-20T10:20:38.072Z,2.00
2018-06-20T10:23:06.144Z,2.00
2018-06-20T10:25:34.281Z,1.90
2018-06-20T10:28:02.350Z,1.73
2018-06-20T10:30:30.455Z,2.20
2018-06-20T10:32:58.630Z,2.23
2018-06-20T10:35:26.737Z,2.10
2018-06-20T10:37:55.079Z,1.72
2018-06-20T10:40:23.277Z,2.27
2018-06-20T10:42:51.356Z,1.83
2018-06-20T10:45:24.669Z,2.00
2018-06-20T10:47:52.753Z,1.80
2018-06-20T10:50:20.856Z,2.10
2018-06-20T10:52:48.944Z,2.37
2018-06-20T10:55:17.980Z,2.35
2018-06-20T10:57:51.589Z,2.10
2018-06-20T11:00:25.041Z,2.10
2018-06-20T11:02:58.420Z,1.83
2018-06-20T11:05:31.973Z,2.10
2018-06-20T11:08:05.557Z,2.10
2018-06-20T11:10:39.211Z,2.00
2018-06-20T11:13:08.620Z,1.70
2018-06-20T11:15:36.853Z,2.10
2018-06-20T11:18:05.099Z,1.80
2018-06-20T11:20:38.654Z,1.70
2018-06-20T11:23:06.860Z,1.90
2018-06-20T11:25:35.089Z,1.90
2018-06-20T11:28:07.491Z,2.13
2018-06-20T11:30:35.614Z,1.70
2018-06-20T11:33:03.725Z,2.37
2018-06-20T11:35:31.912Z,2.00
2018-06-20T11:38:00.093Z,2.10
2018-06-20T11:40:28.159Z,1.60
2018-06-20T11:42:56.275Z,1.70
2018-06-20T11:45:28.936Z,1.50
2018-06-20T11:47:57.294Z,1.85
2018-06-20T11:50:25.482Z,2.43
2018-06-20T11:53:04.180Z,1.80
2018-06-20T11:55:36.268Z,1.93
2018-06-20T11:58:10.257Z,1.90
2018-06-20T12:00:43.846Z,1.90
2018-06-20T12:03:17.253Z,2.00
2018-06-20T12:05:50.751Z,1.70
2018-06-20T12:08:24.202Z,1.90
2018-06-20T12:10:57.804Z,1.60
2018-06-20T12:13:31.228Z,1.70
2018-06-20T12:16:04.703Z,1.77
2018-06-20T12:18:38.264Z,2.20
2018-06-20T12:21:11.720Z,1.70
2018-06-20T12:23:45.212Z,2.00
2018-06-20T12:26:18.626Z,1.97
2018-06-20T12:28:52.149Z,2.05
2018-06-20T12:31:25.504Z,1.75
2018-06-20T12:33:58.796Z,2.57
2018-06-20T12:36:32.272Z,1.90
2018-06-20T12:39:01.307Z,1.60
2018-06-20T12:41:35.703Z,1.57
2018-06-20T12:44:09.884Z,1.70
2018-06-20T12:47:46.290Z,1.43
2018-06-20T12:50:20.787Z,1.53
2018-06-20T12:52:49.591Z,1.60
2018-06-20T12:55:18.034Z,1.50
2018-06-20T12:57:46.112Z,1.80
2018-06-20T13:00:14.525Z,1.53
2018-06-20T13:02:43.608Z,1.70
2018-06-20T13:05:11.791Z,1.67
2018-06-20T13:07:39.935Z,1.83
2018-06-20T13:10:08.040Z,1.53
2018-06-20T13:12:36.424Z,2.10
2018-06-20T13:15:04.568Z,1.90
2018-06-20T13:17:33.174Z,1.73
2018-06-20T13:20:01.420Z,2.10
2018-06-20T13:22:29.791Z,1.50
2018-06-20T13:24:57.881Z,1.70
2018-06-20T13:27:31.341Z,1.30
2018-06-20T13:30:04.877Z,1.50
2018-06-20T13:32:38.323Z,1.47
2018-06-20T13:35:11.842Z,2.17
2018-06-20T13:37:45.313Z,2.10
2018-06-20T13:40:18.668Z,1.93
2018-06-20T13:42:52.304Z,1.62
2018-06-20T13:45:25.915Z,2.00
2018-06-20T13:47:59.954Z,1.40
2018-06-20T13:50:28.140Z,1.67
2018-06-20T13:52:56.206Z,1.70
2018-06-20T13:55:24.279Z,1.50
2018-06-20T13:57:52.448Z,1.70
2018-06-20T14:00:20.568Z,1.57
2018-06-20T14:02:48.651Z,1.30
2018-06-20T14:05:16.713Z,1.27
2018-06-20T14:07:45.709Z,1.45
2018-06-20T14:10:13.781Z,1.70
2018-06-20T14:12:41.848Z,1.50
2018-06-20T14:15:09.939Z,1.50
2018-06-20T14:17:38.055Z,1.40
2018-06-20T14:20:11.667Z,1.70
2018-06-20T14:22:40.128Z,1.53
2018-06-20T14:25:08.228Z,1.47
2018-06-20T14:27:36.310Z,1.70
2018-06-20T14:30:04.664Z,1.20
2018-06-20T14:32:38.151Z,1.32
2018-06-20T14:35:11.470Z,1.30
2018-06-20T14:37:44.859Z,2.10
2018-06-20T14:40:19.082Z,1.40
2018-06-20T14:42:52.783Z,1.47
2018-06-20T14:45:26.223Z,1.40
2018-06-20T14:47:54.287Z,1.40
2018-06-20T14:50:22.576Z,1.30
2018-06-20T14:52:50.697Z,1.70
2018-06-20T14:55:18.780Z,1.50
2018-06-20T14:57:47.897Z,1.40
2018-06-20T15:00:16.324Z,1.30
2018-06-20T15:02:44.445Z,1.20
2018-06-20T15:05:12.539Z,1.20
2018-06-20T15:07:40.596Z,1.17
2018-06-20T15:10:08.711Z,1.17
2018-06-20T15:12:36.793Z,1.13
2018-06-20T15:15:04.963Z,1.17
2018-06-20T15:17:33.048Z,1.27
2018-06-20T15:20:01.234Z,1.40
2018-06-20T15:22:33.484Z,1.30
2018-06-20T15:25:01.595Z,1.20
2018-06-20T15:27:35.308Z,1.10
2018-06-20T15:30:08.656Z,1.10
2018-06-20T15:32:42.210Z,1.30
2018-06-20T15:35:15.569Z,1.20
2018-06-20T15:37:48.949Z,1.10
2018-06-20T15:40:17.042Z,1.20
2018-06-20T15:42:45.320Z,1.33
2018-06-20T15:45:13.513Z,1.30
2018-06-20T15:47:41.884Z,1.10
2018-06-20T15:50:09.979Z,1.17
2018-06-20T15:52:38.280Z,1.40
2018-06-20T15:55:06.425Z,1.50
2018-06-20T15:57:35.103Z,1.30
2018-06-20T16:00:03.330Z,1.20
2018-06-20T16:02:31.638Z,1.40
2018-06-20T16:04:59.967Z,1.23
2018-06-20T16:07:28.052Z,1.10
2018-06-20T16:09:58.450Z,1.20
2018-06-20T16:12:27.398Z,1.40
2018-06-20T16:14:56.380Z,1.32
2018-06-20T16:17:24.484Z,1.20
2018-06-20T16:22:00.833Z,1.37
2018-06-20T16:24:34.474Z,1.20
2018-06-20T16:27:07.803Z,1.23
2018-06-20T16:29:41.392Z,1.30
2018-06-20T16:32:09.902Z,1.30
2018-06-20T16:34:37.980Z,1.20
2018-06-20T16:37:06.922Z,1.30
2018-06-20T16:39:35.207Z,1.30
2018-06-20T16:42:03.588Z,1.37
2018-06-20T16:44:31.995Z,1.33
2018-06-20T16:47:00.265Z,1.40
2018-06-20T16:49:28.572Z,1.40
2018-06-20T16:51:56.857Z,1.10
2018-06-20T16:54:25.547Z,1.10
2018-06-20T16:56:54.646Z,1.50
2018-06-20T16:59:23.331Z,1.27
2018-06-20T17:01:56.827Z,1.30
2018-06-20T17:04:25.084Z,1.80
2018-06-20T17:06:53.816Z,1.52
2018-06-20T17:09:22.216Z,1.87
2018-06-20T17:11:55.698Z,1.43
2018-06-20T17:14:29.738Z,1.40
2018-06-20T17:17:03.899Z,1.20
2018-06-20T17:19:37.352Z,1.60
2018-06-20T17:22:10.780Z,1.30
2018-06-20T17:24:44.380Z,1.50
2018-06-20T17:27:12.624Z,1.40
2018-06-20T17:29:40.916Z,1.43
2018-06-20T17:32:09.260Z,1.20
2018-06-20T17:34:37.607Z,1.63
2018-06-20T17:37:06.571Z,1.57
2018-06-20T17:39:35.240Z,1.20
2018-06-20T17:42:03.392Z,1.30
2018-06-20T17:44:31.604Z,1.30
2018-06-20T17:46:59.675Z,1.40
2018-06-20T17:49:27.747Z,1.27
2018-06-20T17:51:56.124Z,1.40
2018-06-20T17:54:24.215Z,1.57
2018-06-20T17:56:52.520Z,1.63
2018-06-20T17:59:21.420Z,1.53
2018-06-20T18:01:49.532Z,2.07
2018-06-20T18:04:23.031Z,1.70
2018-06-20T18:06:56.555Z,2.00
2018-06-20T18:09:30.014Z,1.97
2018-06-20T18:12:03.428Z,2.23
2018-06-20T18:15:35.177Z,1.87
2018-06-20T18:18:03.276Z,1.80
2018-06-20T18:20:31.347Z,1.90
2018-06-20T18:22:59.434Z,2.37
2018-06-20T18:25:27.524Z,2.10
2018-06-20T18:27:55.836Z,2.10
2018-06-20T18:30:24.328Z,1.97
2018-06-20T18:32:52.568Z,2.10
2018-06-20T18:35:21.547Z,1.70
2018-06-20T18:37:49.648Z,1.50
2018-06-20T18:40:17.876Z,2.13
2018-06-20T18:42:46.441Z,1.90
2018-06-20T18:45:14.752Z,2.37
2018-06-20T18:47:48.393Z,2.03
2018-06-20T18:50:16.716Z,2.03
2018-06-20T18:52:45.973Z,2.00
2018-06-20T18:55:14.089Z,1.80
2018-06-20T18:57:47.476Z,2.17
2018-06-20T19:00:21.227Z,1.90
2018-06-20T19:02:54.840Z,1.90
2018-06-20T19:05:28.198Z,1.90
2018-06-20T19:08:01.563Z,1.80
2018-06-20T19:10:29.648Z,1.87
2018-06-20T19:12:57.763Z,2.10
2018-06-20T19:15:25.861Z,1.97
2018-06-20T19:17:53.946Z,2.07
2018-06-20T19:20:22.072Z,2.07
2018-06-20T19:22:50.148Z,2.00
2018-06-20T19:25:18.232Z,2.13
2018-06-20T19:27:46.335Z,1.70
2018-06-20T19:30:14.615Z,2.10
2018-06-20T19:32:42.744Z,1.70
2018-06-20T19:35:10.816Z,1.92
2018-06-20T19:37:39.019Z,1.80
2018-06-20T19:40:07.155Z,2.10
2018-06-20T19:42:35.302Z,2.30
2018-06-20T19:45:03.511Z,1.83
2018-06-20T19:47:31.971Z,2.80
2018-06-20T19:50:00.317Z,1.85
2018-06-20T19:52:28.387Z,1.80
2018-06-20T19:54:56.481Z,2.37
2018-06-20T19:57:24.546Z,2.03
2018-06-20T19:59:52.623Z,1.90
2018-06-20T20:02:20.808Z,2.13
2018-06-20T20:04:49.367Z,2.10
2018-06-20T20:07:17.482Z,2.03
2018-06-20T20:09:45.549Z,2.20
2018-06-20T20:12:13.757Z,1.82
2018-06-20T20:14:41.852Z,2.67
2018-06-20T20:17:09.936Z,2.43
2018-06-20T20:19:38.066Z,2.83
2018-06-20T20:22:06.276Z,2.80
2018-06-20T20:24:34.359Z,2.57
2018-06-20T20:27:02.552Z,2.37
2018-06-20T20:29:31.271Z,2.50
2018-06-20T20:31:59.413Z,3.33
2018-06-20T20:34:27.589Z,2.60
2018-06-20T20:36:55.796Z,2.83
2018-06-20T20:39:24.294Z,3.33
2018-06-20T20:41:52.396Z,2.67
2018-06-20T20:44:20.742Z,2.67
2018-06-20T20:46:48.809Z,3.07
2018-06-20T20:49:16.876Z,3.23
2018-06-20T20:51:44.954Z,2.60
2018-06-20T20:54:13.019Z,2.83
2018-06-20T20:56:41.206Z,2.67
2018-06-20T20:59:09.407Z,2.60
2018-06-20T21:01:38.520Z,2.97
2018-06-20T21:04:06.620Z,2.83
2018-06-20T21:06:34.733Z,3.63
2018-06-20T21:09:02.851Z,2.67
2018-06-20T21:11:31.684Z,2.77
2018-06-20T21:14:00.563Z,3.17
2018-06-20T21:16:28.645Z,2.90
2018-06-20T21:18:57.327Z,3.20
2018-06-20T21:21:25.400Z,3.37
2018-06-20T21:23:53.600Z,3.13
2018-06-20T21:26:21.984Z,3.50
2018-06-20T21:28:50.275Z,3.33
2018-06-20T21:31:18.496Z,2.63
2018-06-20T21:33:46.807Z,2.60
2018-06-20T21:36:15.024Z,2.50
2018-06-20T21:38:43.107Z,2.80
2018-06-20T21:41:11.196Z,3.27
2018-06-20T21:43:39.279Z,3.47
2018-06-20T21:46:07.354Z,2.90
2018-06-20T21:48:35.608Z,3.27
2018-06-20T21:51:03.643Z,3.33
2018-06-20T21:53:31.713Z,3.40
2018-06-20T21:55:59.776Z,3.10
2018-06-20T21:58:28.616Z,3.00
2018-06-20T22:02:40.932Z,2.87
2018-06-20T22:05:09.262Z,3.20
2018-06-20T22:07:37.976Z,3.30
2018-06-20T22:10:06.760Z,4.10
2018-06-20T22:12:34.949Z,3.60
2018-06-20T22:15:03.421Z,3.33
2018-06-20T22:17:31.724Z,3.13
2018-06-20T22:19:59.810Z,3.73
2018-06-20T22:22:27.888Z,3.20
2018-06-20T22:24:56.160Z,2.93
2018-06-20T22:27:24.376Z,3.57
2018-06-20T22:29:52.677Z,2.90
2018-06-20T22:32:20.732Z,3.47
2018-06-20T22:34:49.000Z,3.33
2018-06-20T22:37:17.295Z,2.93
2018-06-20T22:39:45.612Z,3.27
2018-06-20T22:42:14.256Z,2.90
2018-06-20T22:44:43.512Z,3.05
2018-06-20T22:47:11.596Z,3.07
2018-06-20T22:49:39.692Z,4.40
2018-06-20T22:52:07.949Z,3.40
2018-06-20T22:54:36.275Z,4.23
2018-06-20T22:57:04.372Z,4.07
2018-06-20T22:59:32.466Z,4.95
2018-06-20T23:02:00.547Z,3.60
2018-06-20T23:04:28.718Z,3.77
2018-06-20T23:06:56.796Z,3.60
2018-06-20T23:09:24.911Z,3.30
2018-06-20T23:11:53.124Z,3.80
2018-06-20T23:14:21.212Z,3.10
2018-06-20T23:16:49.296Z,3.90
2018-06-20T23:19:17.492Z,3.17
2018-06-20T23:21:45.808Z,4.10
2018-06-20T23:24:14.080Z,3.60
2018-06-20T23:26:43.818Z,3.67
2018-06-20T23:29:12.045Z,3.90
2018-06-20T23:31:40.384Z,4.67
2018-06-20T23:34:08.710Z,3.23
2018-06-20T23:36:36.967Z,3.90
2018-06-20T23:39:07.799Z,3.67
2018-06-20T23:41:37.303Z,4.47
2018-06-20T23:44:05.664Z,4.20
2018-06-20T23:46:33.789Z,4.37
2018-06-20T23:49:02.044Z,4.20
2018-06-20T23:51:30.200Z,4.70
2018-06-20T23:53:58.749Z,4.97
2018-06-20T23:56:27.022Z,5.57
2018-06-20T23:58:55.083Z,5.10
